createdAt,value
2019-01-30T20:53:16.651Z,4.10
2019-01-30T20:54:16.709Z,5.90
2019-01-30T20:55:16.620Z,5.50
2019-01-30T20:56:16.689Z,4.50
2019-01-30T20:57:16.615Z,8.50
2019-01-30T20:58:16.589Z,4.20
2019-01-30T22:00:56.204Z,28.30
2019-01-30T22:01:55.388Z,30.80
2019-01-30T22:02:55.481Z,33.10
2019-01-30T22:03:55.264Z,34.80
2019-01-30T22:04:55.506Z,37.10
2019-01-30T22:05:55.491Z,37.70
2019-01-30T22:06:55.356Z,40.10
2019-01-30T22:08:01.095Z,40.00
2019-01-30T22:08:56.732Z,42.60
2019-01-30T22:09:55.203Z,42.80
2019-01-30T22:10:55.240Z,44.60
2019-01-30T22:11:55.177Z,44.50
2019-01-30T22:12:55.177Z,46.70
2019-01-30T22:13:57.207Z,46.10
2019-01-30T22:14:55.150Z,50.10
2019-01-30T22:15:55.196Z,48.30
2019-01-30T22:16:55.155Z,51.20
2019-01-30T22:17:55.187Z,49.60
2019-01-30T22:18:55.141Z,52.00
2019-01-30T22:19:55.101Z,54.60
2019-01-30T22:20:55.081Z,54.00
2019-01-30T22:21:55.111Z,57.20
2019-01-30T22:22:55.060Z,54.50
2019-01-30T22:24:05.232Z,58.00
2019-01-30T22:24:56.039Z,58.20
2019-01-30T22:25:55.027Z,59.60
2019-01-30T22:26:55.052Z,56.60
2019-01-30T22:27:55.036Z,59.10
2019-01-30T22:28:55.004Z,58.50
2019-01-30T22:29:55.027Z,58.40
2019-01-30T22:30:55.056Z,59.80
2019-01-30T22:31:55.039Z,59.70
2019-01-30T22:32:54.957Z,62.50
2019-01-30T22:33:54.938Z,66.30
2019-01-30T22:34:54.949Z,61.60
2019-01-30T22:35:54.927Z,61.60
2019-01-30T22:36:54.949Z,63.90
2019-01-30T22:37:54.933Z,63.00
2019-01-30T22:38:55.124Z,61.00
2019-01-30T22:39:54.892Z,60.80
2019-01-30T22:40:54.866Z,64.10
2019-01-30T22:41:54.881Z,63.90
2019-01-30T22:42:54.853Z,63.40
2019-01-30T22:43:54.826Z,68.10
2019-01-30T22:44:54.834Z,67.00
2019-01-30T22:45:54.813Z,64.10
2019-01-30T22:46:54.828Z,64.20
2019-01-30T22:47:54.794Z,62.90
2019-01-30T22:48:54.778Z,64.00
2019-01-30T22:49:54.763Z,65.10
2019-01-30T22:50:54.758Z,62.50
2019-01-30T22:51:54.791Z,63.00
2019-01-30T22:52:54.733Z,64.40
2019-01-30T22:53:54.721Z,64.10
2019-01-30T22:54:54.709Z,65.90
2019-01-30T22:55:54.706Z,67.60
2019-01-30T22:56:54.717Z,65.20
2019-01-30T22:57:54.673Z,64.50
2019-01-30T22:58:54.777Z,69.00
2019-01-30T22:59:54.654Z,63.90
2019-01-30T23:00:54.647Z,63.90
2019-01-30T23:01:54.661Z,63.40
2019-01-30T23:02:54.632Z,65.20
2019-01-30T23:03:54.612Z,65.80
2019-01-30T23:04:54.604Z,65.50
2019-01-30T23:05:54.771Z,62.50
2019-01-30T23:06:54.679Z,60.70
2019-01-30T23:07:54.594Z,64.40
2019-01-30T23:08:54.577Z,66.50
2019-01-30T23:09:57.798Z,61.40
2019-01-30T23:10:54.623Z,62.10
2019-01-30T23:11:57.535Z,59.80
2019-01-30T23:12:54.634Z,61.00
2019-01-30T23:13:54.590Z,66.30
2019-01-30T23:14:54.582Z,61.10
2019-01-30T23:15:54.547Z,69.40
2019-01-30T23:16:54.602Z,61.20
2019-01-30T23:17:54.616Z,62.80
2019-01-30T23:18:55.514Z,62.70
2019-01-30T23:19:54.494Z,62.30
2019-01-30T23:20:54.504Z,60.80
2019-01-30T23:21:54.499Z,64.50
2019-01-30T23:22:54.480Z,62.00
2019-01-30T23:23:54.536Z,59.50
2019-01-30T23:24:54.512Z,61.70
2019-01-30T23:25:54.462Z,64.20
2019-01-30T23:26:54.457Z,63.70
2019-01-30T23:27:54.462Z,63.70
2019-01-30T23:28:54.454Z,65.30
2019-01-30T23:29:54.446Z,66.50
2019-01-30T23:30:54.411Z,63.40
2019-01-30T23:31:54.385Z,65.50
2019-01-30T23:32:54.441Z,65.80
2019-01-30T23:33:54.387Z,64.80
2019-01-30T23:34:54.337Z,65.10
2019-01-30T23:35:54.401Z,62.60
2019-01-30T23:36:54.452Z,65.40
2019-01-30T23:37:54.481Z,60.70
2019-01-30T23:38:54.328Z,64.60
2019-01-30T23:39:54.256Z,63.30
2019-01-30T23:40:54.287Z,62.30
2019-01-30T23:41:54.422Z,65.30
2019-01-30T23:42:54.296Z,61.50
2019-01-30T23:43:54.306Z,63.50
2019-01-30T23:44:54.327Z,60.70
2019-01-30T23:45:54.198Z,63.50
2019-01-30T23:46:54.179Z,64.70
2019-01-30T23:47:54.256Z,63.30
2019-01-30T23:48:54.161Z,61.50
2019-01-30T23:49:54.193Z,67.20
2019-01-30T23:50:54.265Z,69.10
2019-01-30T23:51:54.228Z,64.80
2019-01-30T23:52:54.382Z,64.80
2019-01-30T23:53:54.162Z,66.30
2019-01-30T23:54:54.219Z,64.40
2019-01-30T23:55:54.158Z,64.40
2019-01-30T23:56:54.175Z,65.70
2019-01-30T23:57:54.241Z,62.50
2019-01-30T23:58:54.121Z,64.50
2019-01-30T23:59:54.082Z,63.40
